Time;durP1;ratioP1;P1;durP2;ratioP2;P2;SDS_P1;SDS_P2;PMS_P1;PMS_P2;Temp;Humidity;BMP_temperature;BMP_pressure;BME280_temperature;BME280_humidity;BME280_pressure;Samples;Min_cycle;Max_cycle;Signal;HPM_P1;HPM_P2
2022/04/23 00:01:35;;;;;;;0.65;0.57;;;;;;;;;;5009612;28;20036;-65
2022/04/23 00:04:00;;;;;;;0.30;0.30;;;15.30;73.80;;;;;;5009371;28;20029;-64
2022/04/23 00:06:26;;;;;;;1.33;0.75;;;15.20;67.30;;;;;;5009780;28;20038;-64
2022/04/23 00:08:52;;;;;;;0.60;0.60;;;;;;;;;;4995440;28;20030;-65
2022/04/23 00:11:18;;;;;;;1.00;0.68;;;;;;;;;;4998083;28;20618;-67
2022/04/23 00:13:44;;;;;;;1.02;0.73;;;;;;;;;;5000140;28;20114;-65
2022/04/23 00:16:10;;;;;;;1.15;0.70;;;;;;;;;;5008622;28;20046;-67
2022/04/23 00:18:36;;;;;;;1.17;0.65;;;15.10;58.00;;;;;;5008908;28;20138;-66
2022/04/23 00:21:04;;;;;;;1.02;0.80;;;;;;;;;;4993736;28;20121;-67
2022/04/23 00:23:31;;;;;;;0.77;0.77;;;;;;;;;;4997027;28;20034;-68
2022/04/23 00:25:58;;;;;;;0.60;0.60;;;;;;;;;;5005675;28;20522;-67
2022/04/23 00:28:24;;;;;;;1.08;0.77;;;;;;;;;;5006050;28;20030;-67
2022/04/23 00:30:52;;;;;;;1.48;1.17;;;;;;;;;;4996829;28;20052;-68
2022/04/23 00:33:18;;;;;;;4.97;1.23;;;;;;;;;;5008909;28;20087;-68
2022/04/23 00:35:44;;;;;;;0.80;0.70;;;;;;;;;;5025099;28;20548;-67
2022/04/23 00:38:10;;;;;;;5.68;1.20;;;;;;;;;;5009466;28;20109;-67
2022/04/23 00:40:38;;;;;;;1.67;1.33;;;15.10;71.60;;;;;;5008823;28;20118;-66
2022/04/23 00:43:10;;;;;;;;;;;;;;;;;;5009646;28;20032;-65
2022/04/23 00:45:36;;;;;;;1.00;0.95;;;;;;;;;;5008722;28;19916;-67
2022/04/23 00:48:03;;;;;;;1.27;0.95;;;;;;;;;;5009326;28;20037;-68
2022/04/23 00:50:28;;;;;;;2.53;1.33;;;15.10;79.30;;;;;;5009086;28;20041;-66
2022/04/23 00:52:59;;;;;;;1.30;1.00;;;;;;;;;;5000550;28;20026;-67
2022/04/23 00:55:25;;;;;;;2.10;0.70;;;15.00;59.00;;;;;;5015543;28;20038;-65
2022/04/23 00:57:51;;;;;;;1.92;1.02;;;;;;;;;;5008791;28;20033;-68
2022/04/23 01:00:18;;;;;;;4.72;1.17;;;;;;;;;;5008157;28;20129;-67
2022/04/23 01:02:44;;;;;;;2.08;1.23;;;;;;;;;;5009546;28;20546;-65
2022/04/23 01:05:10;;;;;;;1.27;0.93;;;14.50;61.40;;;;;;5008437;28;20569;-64
2022/04/23 01:07:45;;;;;;;1.48;0.98;;;14.50;62.50;;;;;;5008633;28;20030;-65
2022/04/23 01:10:11;;;;;;;1.48;1.27;;;;;;;;;;5008550;28;20034;-65
2022/04/23 01:12:39;;;;;;;2.30;1.70;;;;;;;;;;5008216;28;20104;-63
2022/04/23 01:15:05;;;;;;;1.58;1.23;;;;;;;;;;5008129;28;20093;-68
2022/04/23 01:17:31;;;;;;;2.08;1.88;;;;;;;;;;5009335;28;20033;-67
2022/04/23 01:19:58;;;;;;;1.50;1.40;;;;;;;;;;5000266;28;20118;-67
2022/04/23 01:22:24;;;;;;;2.45;0.80;;;;;;;;;;5000218;28;20065;-67
2022/04/23 01:24:51;;;;;;;1.27;1.10;;;;;;;;;;5008287;28;20030;-66
2022/04/23 01:27:18;;;;;;;1.10;1.00;;;14.30;69.50;;;;;;5007858;28;20054;-64
2022/04/23 01:29:44;;;;;;;1.25;1.15;;;;;;;;;;5005299;28;20077;-65
2022/04/23 01:32:11;;;;;;;8.00;1.10;;;;;;;;;;5004579;28;20487;-65
2022/04/23 01:34:36;;;;;;;1.70;1.10;;;14.40;81.30;;;;;;5006715;28;20061;-65
2022/04/23 01:37:03;;;;;;;2.63;1.20;;;;;;;;;;5008104;28;20065;-65
2022/04/23 01:39:29;;;;;;;2.30;1.35;;;;;;;;;;5008247;28;20026;-65
2022/04/23 01:41:55;;;;;;;1.83;1.63;;;;;;;;;;5000510;28;20076;-65
2022/04/23 01:44:20;;;;;;;1.05;0.95;;;14.50;87.30;;;;;;4997080;28;20530;-64
2022/04/23 01:46:46;;;;;;;2.70;1.83;;;;;;;;;;5002656;28;20069;-65
2022/04/23 01:49:12;;;;;;;1.48;1.17;;;;;;;;;;5007848;28;20479;-64
2022/04/23 01:51:38;;;;;;;7.38;2.13;;;;;;;;;;5008213;28;20029;-65
2022/04/23 01:54:04;;;;;;;1.67;1.20;;;;;;;;;;5008261;28;20038;-65
2022/04/23 01:56:30;;;;;;;1.17;0.88;;;;;;;;;;5007536;28;20054;-67
2022/04/23 01:58:56;;;;;;;1.55;1.08;;;;;;;;;;5007780;28;20068;-69
2022/04/23 02:01:22;;;;;;;0.80;0.80;;;;;;;;;;5007951;28;20061;-67
2022/04/23 02:03:51;;;;;;;1.08;0.80;;;;;;;;;;5007374;28;20022;-67
2022/04/23 02:06:18;;;;;;;3.25;0.88;;;;;;;;;;5007859;28;20061;-66
2022/04/23 02:08:44;;;;;;;0.75;0.73;;;;;;;;;;5023339;28;20054;-67
2022/04/23 02:11:10;;;;;;;3.72;1.23;;;;;;;;;;4998344;28;20092;-68
2022/04/23 02:13:36;;;;;;;3.15;1.20;;;;;;;;;;5004128;28;20029;-67
2022/04/23 02:16:04;;;;;;;7.13;1.42;;;;;;;;;;5011616;28;20718;-65
2022/04/23 02:18:31;;;;;;;1.20;1.05;;;14.30;65.60;;;;;;5010682;28;20026;-65
2022/04/23 02:20:58;;;;;;;6.65;1.15;;;14.30;62.40;;;;;;5012430;28;20107;-68
2022/04/23 02:23:24;;;;;;;2.10;1.33;;;;;;;;;;5000471;28;20049;-65
2022/04/23 02:25:50;;;;;;;0.85;0.77;;;;;;;;;;5007058;28;20030;-67
2022/04/23 02:28:16;;;;;;;1.40;1.30;;;;;;;;;;5008918;28;20036;-65
2022/04/23 02:30:42;;;;;;;4.63;1.10;;;;;;;;;;4997822;28;20030;-64
2022/04/23 02:33:08;;;;;;;1.02;0.80;;;;;;;;;;5026495;28;20045;-66
2022/04/23 02:35:34;;;;;;;1.65;0.98;;;;;;;;;;5012039;28;20044;-67
2022/04/23 02:38:02;;;;;;;2.53;0.85;;;;;;;;;;5003077;28;20038;-67
2022/04/23 02:40:28;;;;;;;2.38;1.50;;;13.80;70.40;;;;;;4999945;28;20113;-64
2022/04/23 02:42:56;;;;;;;1.23;0.82;;;;;;;;;;5008648;28;20028;-68
2022/04/23 02:45:23;;;;;;;1.17;1.02;;;;;;;;;;5011133;28;20033;-66
2022/04/23 02:47:52;;;;;;;2.47;1.17;;;;;;;;;;5011973;28;20033;-67
2022/04/23 02:50:25;;;;;;;4.47;1.02;;;;;;;;;;5009998;28;20029;-67
2022/04/23 02:52:51;;;;;;;4.78;0.80;;;;;;;;;;5010982;28;20022;-67
2022/04/23 02:55:17;;;;;;;4.15;1.42;;;;;;;;;;5010548;28;20034;-68
2022/04/23 02:57:44;;;;;;;1.25;0.98;;;;;;;;;;5010441;28;20046;-67
2022/04/23 03:00:10;;;;;;;6.38;1.48;;;;;;;;;;4995050;28;20041;-67
2022/04/23 03:02:39;;;;;;;2.03;1.30;;;13.90;64.80;;;;;;5011398;28;20041;-67
2022/04/23 03:05:14;;;;;;;0.82;0.82;;;13.90;65.20;;;;;;5010559;28;20113;-67
2022/04/23 03:07:40;;;;;;;1.02;0.85;;;;;;;;;;5010871;28;20105;-67
2022/04/23 03:10:07;;;;;;;1.35;0.73;;;14.00;65.20;;;;;;5009620;28;20586;-67
2022/04/23 03:12:36;;;;;;;6.80;1.25;;;;;;;;;;4995635;28;20048;-67
2022/04/23 03:15:03;;;;;;;1.08;0.98;;;;;;;;;;4995037;28;20073;-68
2022/04/23 03:17:29;;;;;;;2.40;1.17;;;14.00;88.30;;;;;;5011588;28;20026;-67
2022/04/23 03:19:55;;;;;;;0.60;0.60;;;;;;;;;;5009502;28;20506;-66
2022/04/23 03:22:21;;;;;;;0.90;0.75;;;;;;;;;;5039353;28;20125;-65
2022/04/23 03:24:47;;;;;;;0.93;0.82;;;14.00;87.80;;;;;;4996423;28;20025;-63
2022/04/23 03:27:13;;;;;;;2.05;0.90;;;;;;;;;;5009857;28;20030;-65
2022/04/23 03:29:39;;;;;;;1.65;0.93;;;;;;;;;;5011164;28;20057;-65
2022/04/23 03:32:06;;;;;;;0.60;0.60;;;;;;;;;;5009994;28;20022;-64
2022/04/23 03:34:32;;;;;;;1.10;0.90;;;;;;;;;;5010054;28;20030;-64
2022/04/23 03:36:58;;;;;;;1.20;1.10;;;;;;;;;;5009831;28;20033;-66
2022/04/23 03:39:24;;;;;;;2.50;0.90;;;;;;;;;;4994160;28;20160;-65
2022/04/23 03:41:50;;;;;;;1.38;1.05;;;14.30;73.80;;;;;;5010581;28;20029;-65
2022/04/23 03:44:16;;;;;;;1.10;0.82;;;;;;;;;;5009920;28;20029;-64
2022/04/23 03:46:42;;;;;;;1.40;1.10;;;;;;;;;;5009917;28;20033;-65
2022/04/23 03:49:08;;;;;;;2.63;1.10;;;;;;;;;;5009575;28;20022;-64
2022/04/23 03:51:35;;;;;;;2.92;1.33;;;;;;;;;;5010352;28;20021;-65
2022/04/23 03:54:01;;;;;;;4.38;0.85;;;14.10;80.80;;;;;;4993674;28;20061;-64
2022/04/23 03:56:27;;;;;;;0.63;0.63;;;14.00;85.20;;;;;;5010051;28;20050;-63
2022/04/23 03:58:53;;;;;;;1.13;0.90;;;;;;;;;;5002678;28;20530;-64
2022/04/23 04:01:19;;;;;;;1.85;1.05;;;;;;;;;;5006594;28;20026;-65
2022/04/23 04:03:45;;;;;;;2.88;1.20;;;;;;;;;;4996727;28;20537;-64
2022/04/23 04:06:11;;;;;;;7.40;1.55;;;14.10;84.30;;;;;;5009617;28;20056;-67
2022/04/23 04:08:37;;;;;;;2.08;0.77;;;;;;;;;;4995056;28;20038;-67
2022/04/23 04:11:03;;;;;;;2.70;0.60;;;;;;;;;;5006881;28;20499;-67
2022/04/23 04:13:29;;;;;;;1.40;1.10;;;;;;;;;;5005274;28;20023;-67
2022/04/23 04:15:56;;;;;;;1.27;0.93;;;;;;;;;;4997566;28;20048;-67
2022/04/23 04:18:22;;;;;;;2.05;0.88;;;;;;;;;;4993519;28;20025;-64
2022/04/23 04:20:50;;;;;;;1.40;1.00;;;;;;;;;;4995997;28;20030;-64
2022/04/23 04:23:16;;;;;;;2.25;1.38;;;;;;;;;;5008465;28;20084;-65
2022/04/23 04:25:42;;;;;;;1.45;1.05;;;;;;;;;;5040630;28;20056;-68
2022/04/23 04:28:09;;;;;;;1.40;0.95;;;14.10;85.90;;;;;;5008441;28;20057;-67
2022/04/23 04:33:39;;;;;;;4.28;1.25;;;;;;;;;;5045539;28;20025;-68
2022/04/23 04:36:05;;;;;;;1.27;0.65;;;;;;;;;;5029432;28;20056;-67
2022/04/23 04:38:31;;;;;;;2.15;0.93;;;;;;;;;;5034126;28;20042;-66
2022/04/23 04:40:57;;;;;;;1.73;1.02;;;13.60;87.80;;;;;;5035497;28;20049;-67
2022/04/23 04:43:23;;;;;;;5.88;1.10;;;;;;;;;;5042513;28;20466;-65
2022/04/23 04:45:49;;;;;;;2.15;1.10;;;;;;;;;;5032966;28;20636;-65
2022/04/23 04:48:15;;;;;;;3.85;1.00;;;;;;;;;;5029710;28;20033;-66
2022/04/23 04:50:41;;;;;;;1.40;0.77;;;;;;;;;;5032511;28;20545;-65
2022/04/23 04:53:07;;;;;;;6.50;1.67;;;;;;;;;;5033745;28;20466;-64
2022/04/23 04:55:36;;;;;;;3.53;1.40;;;;;;;;;;5034244;28;20065;-64
2022/04/23 04:58:02;;;;;;;1.80;0.82;;;;;;;;;;5034372;28;20033;-65
2022/04/23 05:00:28;;;;;;;2.03;0.98;;;;;;;;;;5029899;28;20179;-64
2022/04/23 05:02:54;;;;;;;6.57;1.40;;;;;;;;;;5026982;28;20434;-63
2022/04/23 05:05:20;;;;;;;1.50;0.98;;;;;;;;;;4999725;28;20108;-64
2022/04/23 05:07:46;;;;;;;0.80;0.80;;;;;;;;;;4997232;28;20427;-64
2022/04/23 05:10:12;;;;;;;0.98;0.73;;;;;;;;;;4997262;28;20029;-65
2022/04/23 05:12:38;;;;;;;1.05;0.93;;;;;;;;;;4994207;28;20048;-65
2022/04/23 05:15:05;;;;;;;1.00;0.70;;;;;;;;;;4992749;28;20035;-65
2022/04/23 05:17:31;;;;;;;5.50;0.80;;;;;;;;;;5008521;28;20029;-63
2022/04/23 05:19:56;;;;;;;1.05;0.52;;;;;;;;;;5000129;28;20492;-65
2022/04/23 05:22:23;;;;;;;1.08;0.70;;;;;;;;;;4999249;28;20054;-64
2022/04/23 05:24:48;;;;;;;1.45;1.20;;;13.50;79.90;;;;;;5006581;28;20038;-64
2022/04/23 05:27:14;;;;;;;2.55;0.70;;;;;;;;;;5007724;28;20487;-65
2022/04/23 05:29:40;;;;;;;2.10;0.93;;;;;;;;;;5008756;28;20061;-65
2022/04/23 05:32:06;;;;;;;1.80;0.85;;;;;;;;;;5007603;28;20057;-65
2022/04/23 05:34:34;;;;;;;4.22;1.33;;;;;;;;;;5003131;28;20038;-64
2022/04/23 05:37:00;;;;;;;0.68;0.68;;;;;;;;;;4997019;28;20824;-67
2022/04/23 05:39:27;;;;;;;2.15;0.90;;;;;;;;;;5007456;28;20048;-65
2022/04/23 05:41:53;;;;;;;0.98;0.85;;;;;;;;;;5001666;28;20030;-66
2022/04/23 05:44:19;;;;;;;2.65;0.70;;;;;;;;;;5002684;28;20391;-67
2022/04/23 05:46:44;;;;;;;1.38;0.70;;;;;;;;;;5007380;28;20034;-67
2022/04/23 05:49:10;;;;;;;1.38;0.77;;;13.70;80.70;;;;;;5006050;28;20038;-66
2022/04/23 05:51:36;;;;;;;1.05;0.88;;;;;;;;;;5009047;28;20080;-68
2022/04/23 05:54:02;;;;;;;1.67;1.10;;;;;;;;;;5007710;28;20033;-67
2022/04/23 05:56:28;;;;;;;0.70;0.60;;;;;;;;;;5005093;28;20042;-66
2022/04/23 05:58:55;;;;;;;2.75;1.40;;;;;;;;;;5007445;28;20445;-66
2022/04/23 06:01:21;;;;;;;1.57;1.23;;;;;;;;;;5008993;28;22670;-66
2022/04/23 06:03:46;;;;;;;1.40;0.88;;;14.30;81.50;;;;;;5008134;28;20036;-67
2022/04/23 06:06:12;;;;;;;4.20;1.15;;;;;;;;;;5009787;28;20506;-66
2022/04/23 06:08:42;;;;;;;0.90;0.68;;;;;;;;;;5010225;28;20032;-67
2022/04/23 06:11:08;;;;;;;1.83;0.90;;;;;;;;;;5002500;28;20451;-67
2022/04/23 06:13:34;;;;;;;2.03;0.90;;;;;;;;;;5004787;28;20785;-68
2022/04/23 06:16:00;;;;;;;1.77;0.77;;;;;;;;;;5011097;28;20038;-67
2022/04/23 06:18:26;;;;;;;3.67;1.05;;;;;;;;;;5010752;28;20168;-67
2022/04/23 06:20:52;;;;;;;1.35;1.25;;;;;;;;;;4997269;28;20116;-67
2022/04/23 06:23:18;;;;;;;1.67;1.00;;;;;;;;;;5009518;28;20069;-68
2022/04/23 06:25:44;;;;;;;1.92;1.25;;;;;;;;;;5004977;28;20036;-68
2022/04/23 06:28:10;;;;;;;1.00;0.75;;;;;;;;;;5001218;28;20034;-66
2022/04/23 06:30:37;;;;;;;1.63;1.20;;;15.20;59.60;;;;;;5011546;28;20155;-65
2022/04/23 06:33:04;;;;;;;2.05;1.55;;;;;;;;;;5011206;28;20105;-67
2022/04/23 06:35:30;;;;;;;1.90;1.33;;;;;;;;;;5014637;28;20042;-66
2022/04/23 06:37:57;;;;;;;4.63;0.70;;;;;;;;;;4999898;28;20031;-67
2022/04/23 06:40:23;;;;;;;3.03;1.10;;;;;;;;;;5003646;28;20035;-67
2022/04/23 06:42:49;;;;;;;3.65;1.52;;;;;;;;;;5007829;28;20265;-67
2022/04/23 06:45:15;;;;;;;3.42;1.05;;;;;;;;;;4994610;28;20038;-66
2022/04/23 06:47:41;;;;;;;3.13;0.98;;;;;;;;;;5011428;28;20022;-68
2022/04/23 06:50:08;;;;;;;7.05;1.05;;;;;;;;;;5006886;28;20057;-67
2022/04/23 06:52:34;;;;;;;5.05;1.05;;;;;;;;;;5007684;28;20033;-66
2022/04/23 06:55:00;;;;;;;6.10;1.00;;;;;;;;;;5008397;28;20488;-65
2022/04/23 06:57:26;;;;;;;5.10;2.00;;;;;;;;;;5008257;28;20046;-65
2022/04/23 06:59:52;;;;;;;4.10;1.25;;;;;;;;;;5010186;28;20034;-65
2022/04/23 07:02:19;;;;;;;3.63;1.23;;;;;;;;;;5007570;28;20539;-64
2022/04/23 07:04:45;;;;;;;4.80;0.77;;;;;;;;;;5007536;28;20037;-66
2022/04/23 07:07:11;;;;;;;4.07;0.77;;;18.80;72.90;;;;;;5022060;28;20515;-64
2022/04/23 07:09:37;;;;;;;12.48;1.17;;;;;;;;;;5010671;28;20037;-66
2022/04/23 07:12:05;;;;;;;9.02;1.30;;;;;;;;;;5003250;28;20029;-64
2022/04/23 07:14:32;;;;;;;1.95;0.90;;;;;;;;;;5016748;28;20109;-63
2022/04/23 07:16:57;;;;;;;1.77;0.90;;;;;;;;;;5006712;28;20025;-63
2022/04/23 07:19:24;;;;;;;1.08;0.77;;;;;;;;;;5005371;28;20033;-65
2022/04/23 07:21:50;;;;;;;1.23;0.68;;;;;;;;;;5010726;28;20054;-65
2022/04/23 07:24:16;;;;;;;2.55;1.05;;;;;;;;;;5025110;28;20088;-64
2022/04/23 07:26:42;;;;;;;2.38;1.00;;;;;;;;;;5019785;28;20025;-62
2022/04/23 07:29:10;;;;;;;1.65;1.08;;;15.80;58.30;;;;;;5009463;28;20431;-64
2022/04/23 07:31:36;;;;;;;5.80;1.33;;;;;;;;;;5010704;28;20111;-66
2022/04/23 07:39:31;;;;;;;2.60;1.42;;;;;;;;;;5007833;28;20041;-64
2022/04/23 07:41:58;;;;;;;2.40;0.73;;;;;;;;;;5014460;28;20117;-66
2022/04/23 07:44:24;;;;;;;6.53;1.30;;;;;;;;;;5009891;28;20073;-65
2022/04/23 07:46:50;;;;;;;2.00;1.15;;;;;;;;;;5008214;28;20325;-64
2022/04/23 07:49:17;;;;;;;2.83;1.48;;;;;;;;;;5009590;28;20033;-63
2022/04/23 07:51:47;;;;;;;6.85;1.35;;;;;;;;;;5009288;28;20499;-64
2022/04/23 07:54:14;;;;;;;0.70;0.70;;;;;;;;;;5007908;28;20030;-65
2022/04/23 07:56:41;;;;;;;4.80;1.00;;;;;;;;;;5008977;28;20100;-64
2022/04/23 07:59:07;;;;;;;0.98;0.65;;;;;;;;;;5007507;28;20030;-64
2022/04/23 08:01:33;;;;;;;2.80;1.70;;;;;;;;;;5009371;28;20041;-65
2022/04/23 08:04:02;;;;;;;8.93;1.55;;;;;;;;;;5008766;28;20032;-64
2022/04/23 08:06:28;;;;;;;10.32;1.25;;;19.40;64.90;;;;;;5007875;28;20410;-63
2022/04/23 08:08:54;;;;;;;2.80;1.20;;;;;;;;;;4994081;28;20023;-65
2022/04/23 08:11:22;;;;;;;3.78;1.17;;;;;;;;;;5004684;28;20049;-65
2022/04/23 08:13:50;;;;;;;3.53;1.55;;;20.50;49.20;;;;;;5009508;28;20372;-66
2022/04/23 08:16:16;;;;;;;2.88;1.20;;;;;;;;;;5009188;28;20052;-64
2022/04/23 08:18:42;;;;;;;3.55;1.40;;;;;;;;;;5009380;28;20029;-65
2022/04/23 08:21:08;;;;;;;3.13;2.90;;;;;;;;;;5009546;28;20396;-65
2022/04/23 08:23:34;;;;;;;5.17;1.20;;;;;;;;;;5009955;28;20045;-65
2022/04/23 08:26:02;;;;;;;2.42;0.80;;;21.40;46.10;;;;;;5007452;28;20426;-67
2022/04/23 08:31:12;;;;;;;7.00;1.35;;;19.40;64.70;;;;;;5007218;28;20041;-64
2022/04/23 08:36:23;;;;;;;3.70;0.95;;;18.50;73.20;;;;;;5007907;28;20077;-64
2022/04/23 08:38:49;;;;;;;1.08;0.88;;;;;;;;;;5008216;28;20049;-64
2022/04/23 08:41:15;;;;;;;1.38;0.95;;;;;;;;;;5006238;28;20034;-65
2022/04/23 08:43:41;;;;;;;4.88;1.27;;;;;;;;;;5004444;28;20041;-65
2022/04/23 08:46:08;;;;;;;1.90;0.75;;;;;;;;;;5004193;28;20026;-65
2022/04/23 08:48:49;;;;;;;6.10;1.15;;;17.50;55.10;;;;;;5007334;28;20079;-65
2022/04/23 08:51:20;;;;;;;5.75;1.80;;;;;;;;;;5003543;28;20541;-65
2022/04/23 08:53:47;;;;;;;2.53;0.85;;;17.20;55.30;;;;;;5004535;28;20164;-64
2022/04/23 08:56:13;;;;;;;3.05;1.02;;;;;;;;;;5003954;28;20064;-64
2022/04/23 08:58:39;;;;;;;4.53;1.02;;;;;;;;;;5003832;28;20026;-67
2022/04/23 09:01:06;;;;;;;3.22;1.23;;;;;;;;;;5004747;28;20025;-64
2022/04/23 09:03:32;;;;;;;1.67;0.65;;;;;;;;;;5007064;28;20033;-65
2022/04/23 09:05:58;;;;;;;2.50;0.90;;;;;;;;;;5006731;28;20029;-64
2022/04/23 09:08:26;;;;;;;6.90;1.38;;;;;;;;;;5005173;28;20034;-64
2022/04/23 09:10:54;;;;;;;6.07;1.55;;;;;;;;;;5005934;28;20036;-64
2022/04/23 09:13:30;;;;;;;3.95;1.73;;;;;;;;;;5005598;28;20041;-64
2022/04/23 09:24:16;;;;;;;3.17;1.25;;;;;;;;;;5005217;28;20041;-64
2022/04/23 09:26:42;;;;;;;2.28;1.35;;;;;;;;;;5006518;28;20052;-64
2022/04/23 09:29:15;;;;;;;2.78;1.35;;;;;;;;;;5005247;28;20022;-64
2022/04/23 09:31:42;;;;;;;0.93;0.77;;;;;;;;;;5004629;28;20368;-64
2022/04/23 09:34:17;;;;;;;8.57;1.37;;;;;;;;;;5004338;28;20018;-64
2022/04/23 09:36:55;;;;;;;11.70;2.28;;;15.40;64.30;;;;;;5005702;28;20057;-70
2022/04/23 09:39:31;;;;;;;3.28;0.90;;;;;;;;;;5004695;28;20521;-65
2022/04/23 09:42:13;;;;;;;3.08;1.42;;;;;;;;;;5000916;28;20164;-68
2022/04/23 09:44:39;;;;;;;3.42;0.95;;;;;;;;;;5002380;28;20065;-67
2022/04/23 09:47:06;;;;;;;2.05;1.27;;;;;;;;;;5003687;28;20730;-65
2022/04/23 09:49:32;;;;;;;7.35;0.95;;;;;;;;;;5001735;28;20042;-67
2022/04/23 09:52:03;;;;;;;10.20;1.52;;;15.70;65.80;;;;;;5005333;28;20031;-69
2022/04/23 09:54:30;;;;;;;2.38;1.23;;;;;;;;;;5005981;28;20061;-68
2022/04/23 09:56:57;;;;;;;1.95;0.77;;;;;;;;;;5003116;28;20188;-67
2022/04/23 09:59:25;;;;;;;2.22;1.00;;;;;;;;;;5005010;28;20026;-66
2022/04/23 10:01:52;;;;;;;1.85;1.52;;;;;;;;;;5000553;28;20392;-65
2022/04/23 10:04:22;;;;;;;7.90;0.73;;;;;;;;;;4997944;28;20041;-65
2022/04/23 10:06:49;;;;;;;3.45;1.10;;;;;;;;;;5004890;28;20710;-65
2022/04/23 10:09:17;;;;;;;;;;;16.00;63.50;;;;;;5006325;28;20479;-64
2022/04/23 10:11:43;;;;;;;2.88;0.80;;;;;;;;;;5005912;28;19918;-65
2022/04/23 10:14:13;;;;;;;1.73;0.80;;;;;;;;;;4998282;28;20030;-65
2022/04/23 10:16:40;;;;;;;3.03;1.40;;;;;;;;;;4998826;28;20042;-64
2022/04/23 10:19:07;;;;;;;6.80;2.50;;;;;;;;;;5004024;28;20535;-65
2022/04/23 10:21:50;;;;;;;2.38;1.08;;;;;;;;;;5006472;28;20387;-64
2022/04/23 10:24:18;;;;;;;4.43;1.08;;;;;;;;;;5004448;28;20044;-64
2022/04/23 10:26:44;;;;;;;;;;;;;;;;;;5005858;28;20180;-65
2022/04/23 10:29:15;;;;;;;1.83;0.70;;;15.90;64.70;;;;;;5003560;28;20387;-64
2022/04/23 10:31:41;;;;;;;1.23;0.88;;;;;;;;;;5005203;28;20037;-64
2022/04/23 10:34:30;;;;;;;9.25;2.00;;;15.50;65.60;;;;;;5005435;28;20030;-65
2022/04/23 10:37:16;;;;;;;5.47;0.98;;;;;;;;;;5008469;28;20676;-65
2022/04/23 10:39:42;;;;;;;1.67;0.85;;;;;;;;;;5007340;28;20029;-65
2022/04/23 10:42:13;;;;;;;2.78;1.00;;;15.70;67.10;;;;;;5007103;28;20643;-65
2022/04/23 10:44:39;;;;;;;2.05;1.00;;;;;;;;;;5008327;28;20040;-64
2022/04/23 10:47:16;;;;;;;1.40;1.30;;;;;;;;;;5004547;28;20040;-64
2022/04/23 10:49:43;;;;;;;1.03;0.80;;;;;;;;;;5010407;28;20137;-65
2022/04/23 10:52:09;;;;;;;1.67;0.85;;;;;;;;;;5009935;28;20312;-65
2022/04/23 10:54:41;;;;;;;1.33;0.77;;;;;;;;;;4995197;28;24834;-65
2022/04/23 10:57:07;;;;;;;5.18;0.70;;;;;;;;;;4995283;28;20129;-64
2022/04/23 10:59:34;;;;;;;1.75;0.52;;;;;;;;;;5010667;28;20030;-65
2022/04/23 11:02:06;;;;;;;5.35;1.35;;;;;;;;;;5002793;28;20037;-64
2022/04/23 11:04:33;;;;;;;2.50;1.13;;;;;;;;;;4999423;28;20646;-65
2022/04/23 11:12:52;;;;;;;0.47;0.47;;;;;;;;;;5007956;28;20030;-64
2022/04/23 11:15:19;;;;;;;0.70;0.70;;;;;;;;;;5007037;28;20057;-69
2022/04/23 11:17:46;;;;;;;1.27;0.95;;;;;;;;;;5009005;28;20091;-67
2022/04/23 11:20:13;;;;;;;0.50;0.50;;;;;;;;;;5007658;28;20040;-67
2022/04/23 11:22:39;;;;;;;0.95;0.80;;;;;;;;;;5007448;28;20141;-68
2022/04/23 11:25:06;;;;;;;1.40;1.20;;;;;;;;;;5006725;28;20057;-69
2022/04/23 11:27:36;;;;;;;10.82;0.98;;;17.50;71.40;;;;;;5007737;28;20037;-68
2022/04/23 11:30:03;;;;;;;2.45;0.60;;;18.00;64.50;;;;;;5008070;28;20855;-68
2022/04/23 11:32:31;;;;;;;7.28;1.20;;;17.00;64.00;;;;;;5007619;28;20163;-68
2022/04/23 11:35:00;;;;;;;1.05;0.50;;;16.70;74.50;;;;;;5006860;28;20060;-67
2022/04/23 11:37:36;;;;;;;4.05;1.70;;;;;;;;;;5006866;28;20026;-67
2022/04/23 11:40:12;;;;;;;1.67;0.60;;;;;;;;;;5007598;28;20088;-68
2022/04/23 11:42:46;;;;;;;1.45;1.38;;;;;;;;;;5005264;28;20014;-67
2022/04/23 11:45:12;;;;;;;2.50;0.90;;;;;;;;;;5008869;28;20026;-68
2022/04/23 11:47:38;;;;;;;2.08;1.55;;;;;;;;;;5006644;28;20030;-66
2022/04/23 11:50:10;;;;;;;0.60;0.50;;;;;;;;;;5008961;28;20029;-67
2022/04/23 11:52:36;;;;;;;1.38;1.15;;;16.50;75.60;;;;;;5009315;28;20558;-68
2022/04/23 11:55:02;;;;;;;0.60;0.60;;;;;;;;;;5025030;28;20044;-67
2022/04/23 11:57:28;;;;;;;1.90;1.48;;;16.20;90.50;;;;;;5024411;28;20126;-68
2022/04/23 12:00:03;;;;;;;4.57;0.90;;;;;;;;;;5010777;28;20457;-68
2022/04/23 12:02:31;;;;;;;1.70;1.02;;;16.00;69.80;;;;;;4998945;28;20030;-67
2022/04/23 12:05:01;;;;;;;1.30;1.20;;;;;;;;;;5005362;28;20159;-68
2022/04/23 12:07:28;;;;;;;1.15;1.05;;;;;;;;;;5008918;28;20500;-68
2022/04/23 12:09:55;;;;;;;1.02;0.80;;;;;;;;;;5009394;28;20053;-68
2022/04/23 12:12:42;;;;;;;1.23;0.70;;;;;;;;;;5009517;28;20042;-67
2022/04/23 12:15:11;;;;;;;2.47;1.15;;;;;;;;;;5006295;28;20403;-67
2022/04/23 12:17:45;;;;;;;0.68;0.40;;;;;;;;;;5009178;28;20487;-68
2022/04/23 12:20:12;;;;;;;1.17;0.60;;;;;;;;;;5006771;28;20049;-67
2022/04/23 12:22:38;;;;;;;2.90;1.08;;;;;;;;;;5008576;28;20034;-67
2022/04/23 12:25:16;;;;;;;1.63;1.40;;;;;;;;;;5008259;28;20029;-68
2022/04/23 12:27:54;;;;;;;1.33;0.90;;;;;;;;;;4994663;28;20065;-68
2022/04/23 12:41:54;;;;;;;0.95;0.80;;;;;;;;;;5001663;28;20722;-68
2022/04/23 12:44:20;;;;;;;3.45;1.23;;;;;;;;;;4998261;28;20105;-69
2022/04/23 12:47:17;;;;;;;3.83;1.00;;;;;;;;;;4997773;28;20057;-67
2022/04/23 12:49:49;;;;;;;2.05;0.70;;;;;;;;;;4999852;28;20038;-67
2022/04/23 12:52:20;;;;;;;0.63;0.63;;;16.00;71.20;;;;;;4999985;28;20137;-68
2022/04/23 12:55:05;;;;;;;1.23;0.75;;;;;;;;;;4992234;28;20481;-67
2022/04/23 12:57:31;;;;;;;3.33;1.67;;;;;;;;;;5005723;28;20089;-67
2022/04/23 12:59:57;;;;;;;3.50;2.58;;;;;;;;;;4991282;28;20042;-67
2022/04/23 13:02:23;;;;;;;1.92;0.60;;;;;;;;;;4994042;28;20034;-66
2022/04/23 13:04:49;;;;;;;3.70;0.60;;;;;;;;;;4993699;28;20149;-67
2022/04/23 13:09:59;;;;;;;7.25;0.70;;;;;;;;;;5005206;28;20073;-68
2022/04/23 13:12:26;;;;;;;1.75;0.57;;;;;;;;;;4990195;28;20583;-66
2022/04/23 13:14:52;;;;;;;5.17;1.17;;;15.60;86.20;;;;;;4987455;28;20034;-67
2022/04/23 13:17:17;;;;;;;0.68;0.68;;;;;;;;;;4994443;28;20042;-67
2022/04/23 13:19:44;;;;;;;5.05;0.75;;;;;;;;;;4992034;28;20991;-68
2022/04/23 13:22:10;;;;;;;2.75;1.00;;;;;;;;;;4992547;28;20029;-66
2022/04/23 13:24:36;;;;;;;4.28;0.60;;;;;;;;;;4989598;28;20060;-66
2022/04/23 13:27:02;;;;;;;0.43;0.43;;;;;;;;;;4991855;28;20159;-68
2022/04/23 13:29:28;;;;;;;0.73;0.50;;;;;;;;;;5037899;28;20032;-68
2022/04/23 13:31:54;;;;;;;5.47;1.00;;;;;;;;;;4999680;28;20562;-67
2022/04/23 13:34:20;;;;;;;2.95;0.73;;;;;;;;;;4995524;28;20076;-68
2022/04/23 13:36:45;;;;;;;2.80;0.70;;;;;;;;;;4993189;28;20038;-68
2022/04/23 13:39:12;;;;;;;2.15;0.82;;;;;;;;;;4990627;28;20690;-68
2022/04/23 13:41:38;;;;;;;2.97;0.80;;;;;;;;;;5003114;28;20029;-67
2022/04/23 13:44:04;;;;;;;2.83;0.65;;;;;;;;;;4999364;28;20034;-67
2022/04/23 13:46:33;;;;;;;2.10;1.00;;;;;;;;;;4997004;28;20037;-68
2022/04/23 13:48:59;;;;;;;1.23;0.50;;;;;;;;;;4996229;28;20030;-68
2022/04/23 13:51:26;;;;;;;4.50;1.15;;;;;;;;;;4994040;28;20045;-66
2022/04/23 13:53:52;;;;;;;0.70;0.70;;;;;;;;;;4993815;28;20043;-68
2022/04/23 13:56:18;;;;;;;0.70;0.70;;;;;;;;;;5006470;28;20112;-67
2022/04/23 13:58:44;;;;;;;0.60;0.45;;;;;;;;;;5007891;28;20034;-67
2022/04/23 14:01:10;;;;;;;1.35;0.50;;;;;;;;;;5007308;28;20117;-67
2022/04/23 14:11:49;;;;;;;0.50;0.50;;;;;;;;;;5012211;28;20466;-67
2022/04/23 14:14:15;;;;;;;0.70;0.60;;;;;;;;;;5032981;28;20038;-67
2022/04/23 14:16:43;;;;;;;1.52;1.10;;;;;;;;;;5005363;28;20032;-64
2022/04/23 14:19:09;;;;;;;2.50;0.75;;;;;;;;;;5010379;28;20030;-68
2022/04/23 14:21:35;;;;;;;1.80;0.50;;;;;;;;;;4996244;28;20042;-67
2022/04/23 14:24:01;;;;;;;1.00;0.63;;;;;;;;;;5011657;28;20633;-66
2022/04/23 14:26:28;;;;;;;0.55;0.55;;;;;;;;;;5011752;28;20041;-66
2022/04/23 14:28:54;;;;;;;0.60;0.60;;;;;;;;;;5011224;28;20515;-67
2022/04/23 14:31:20;;;;;;;4.35;0.63;;;;;;;;;;5010951;28;20057;-69
2022/04/23 14:33:46;;;;;;;0.90;0.43;;;;;;;;;;5010625;28;20030;-67
2022/04/23 14:36:12;;;;;;;1.38;1.27;;;;;;;;;;5011249;28;20046;-66
2022/04/23 14:38:38;;;;;;;1.35;0.47;;;15.60;82.70;;;;;;5011839;28;20546;-67
2022/04/23 14:41:04;;;;;;;1.35;0.50;;;;;;;;;;5010656;28;20160;-68
2022/04/23 14:43:30;;;;;;;2.90;0.75;;;;;;;;;;5010979;28;20049;-67
2022/04/23 14:45:56;;;;;;;1.05;0.60;;;;;;;;;;5010709;28;20428;-67
2022/04/23 14:48:22;;;;;;;2.55;0.65;;;15.70;93.80;;;;;;5009770;28;20040;-66
2022/04/23 14:53:32;;;;;;;0.77;0.63;;;;;;;;;;4999410;28;20089;-67
2022/04/23 14:55:59;;;;;;;2.83;0.90;;;;;;;;;;5006424;28;20561;-66
2022/04/23 14:58:26;;;;;;;4.50;0.63;;;;;;;;;;5010649;28;20048;-66
2022/04/23 15:00:52;;;;;;;2.47;0.70;;;;;;;;;;5010648;28;20513;-67
2022/04/23 15:03:18;;;;;;;7.82;1.30;;;;;;;;;;5009854;28;20264;-66
2022/04/23 15:05:45;;;;;;;1.10;0.68;;;;;;;;;;4998088;28;20077;-68
2022/04/23 15:08:11;;;;;;;0.98;0.60;;;;;;;;;;4999796;28;20049;-67
2022/04/23 15:10:37;;;;;;;0.40;0.40;;;;;;;;;;4999126;28;20026;-67
2022/04/23 15:13:05;;;;;;;3.70;0.50;;;;;;;;;;5013592;28;20033;-66
2022/04/23 15:15:32;;;;;;;0.93;0.63;;;;;;;;;;4995273;28;20109;-67
2022/04/23 15:17:58;;;;;;;1.05;0.68;;;;;;;;;;5009951;28;20037;-65